createdAt,value
2019-05-22T00:01:25.774Z,3.0
2019-05-22T00:11:26.856Z,3.0
2019-05-22T00:21:28.380Z,3.7
2019-05-22T00:31:26.205Z,3.3
2019-05-22T00:41:26.448Z,3.7
2019-05-22T00:51:26.309Z,4.1
2019-05-22T01:01:25.209Z,4.6
2019-05-22T01:11:26.951Z,5.3
2019-05-22T01:21:24.683Z,5.6
2019-05-22T01:31:27.315Z,5.5
2019-05-22T01:41:27.678Z,5.5
2019-05-22T01:51:26.290Z,6.5
2019-05-22T02:01:26.364Z,4.3
2019-05-22T02:11:26.043Z,5.0
2019-05-22T02:21:25.824Z,5.9
2019-05-22T02:31:26.607Z,7.1
2019-05-22T02:41:26.396Z,6.2
2019-05-22T02:51:32.265Z,5.8
2019-05-22T03:01:26.162Z,6.2
2019-05-22T03:11:26.830Z,6.8
2019-05-22T03:21:26.705Z,7.0
2019-05-22T03:31:25.633Z,6.5
2019-05-22T03:41:25.432Z,7.3
2019-05-22T03:51:26.230Z,7.0
2019-05-22T04:01:26.171Z,6.8
2019-05-22T04:11:25.799Z,7.2
2019-05-22T04:21:27.390Z,8.0
2019-05-22T04:31:25.389Z,7.1
2019-05-22T04:41:26.810Z,7.5
2019-05-22T04:51:27.981Z,8.2
2019-05-22T05:01:26.849Z,6.9
2019-05-22T05:11:30.813Z,7.0
2019-05-22T05:21:26.899Z,7.9
2019-05-22T05:31:26.558Z,8.5
2019-05-22T05:41:26.664Z,8.1
2019-05-22T05:51:25.933Z,8.1
2019-05-22T06:01:27.789Z,8.0
2019-05-22T06:11:26.548Z,8.7
2019-05-22T06:21:29.161Z,9.8
2019-05-22T06:31:25.736Z,9.5
2019-05-22T06:41:27.256Z,9.3
2019-05-22T06:51:25.365Z,10.2
2019-05-22T07:01:25.243Z,10.1
2019-05-22T07:11:26.569Z,8.8
2019-05-22T07:21:33.773Z,8.3
2019-05-22T07:31:25.720Z,8.1
2019-05-22T07:41:26.815Z,7.4
2019-05-22T07:51:25.485Z,7.2
2019-05-22T08:01:26.324Z,6.3
2019-05-22T08:11:27.163Z,10.4
2019-05-22T08:21:26.593Z,6.9
2019-05-22T08:31:28.161Z,7.2
2019-05-22T08:41:24.866Z,5.7
2019-05-22T08:51:26.760Z,6.5
2019-05-22T09:01:27.769Z,6.2
2019-05-22T09:11:26.182Z,5.4
2019-05-22T09:21:26.093Z,4.7
2019-05-22T09:31:26.580Z,4.7
2019-05-22T09:41:26.510Z,4.9
2019-05-22T09:51:25.316Z,5.1
2019-05-22T10:01:26.340Z,5.2
2019-05-22T10:11:26.219Z,5.0
2019-05-22T10:21:25.233Z,5.2
2019-05-22T10:31:26.120Z,5.7
2019-05-22T10:41:25.706Z,5.1
2019-05-22T10:51:27.229Z,4.9
2019-05-22T11:01:25.901Z,6.0
2019-05-22T11:11:25.497Z,5.3
2019-05-22T11:21:26.285Z,4.4
2019-05-22T11:31:25.892Z,4.3
2019-05-22T11:41:26.965Z,4.9
2019-05-22T11:51:27.254Z,5.0
2019-05-22T12:01:26.148Z,6.8
2019-05-22T12:11:25.161Z,7.7
2019-05-22T12:21:26.054Z,7.5
2019-05-22T12:31:26.262Z,7.3
2019-05-22T12:41:25.482Z,7.7
2019-05-22T12:51:26.215Z,6.9
2019-05-22T13:01:26.695Z,6.6
2019-05-22T13:11:30.963Z,6.7
2019-05-22T13:21:26.597Z,7.0
2019-05-22T13:31:26.233Z,8.0
2019-05-22T13:41:26.962Z,8.3
2019-05-22T13:51:26.938Z,7.0
2019-05-22T14:01:26.290Z,6.6
2019-05-22T14:11:28.637Z,7.5
2019-05-22T14:21:26.825Z,7.6
2019-05-22T14:31:26.732Z,8.2
2019-05-22T14:41:26.036Z,8.3
2019-05-22T14:51:28.263Z,9.4
2019-05-22T15:01:26.839Z,11.0
2019-05-22T15:11:25.789Z,11.7
2019-05-22T15:21:27.799Z,10.5
2019-05-22T15:31:27.500Z,9.9
2019-05-22T15:41:26.369Z,11.2
2019-05-22T15:51:26.264Z,8.2
2019-05-22T16:01:25.842Z,8.3
2019-05-22T16:11:28.708Z,8.7
2019-05-22T16:21:26.534Z,6.5
2019-05-22T16:31:25.587Z,6.2
2019-05-22T16:41:25.839Z,7.7
2019-05-22T16:51:26.824Z,7.0
2019-05-22T17:01:25.752Z,7.8
2019-05-22T17:11:29.070Z,9.7
2019-05-22T17:21:25.180Z,8.5
2019-05-22T17:31:25.360Z,9.4
2019-05-22T17:41:24.972Z,10.0
2019-05-22T17:51:26.785Z,13.7
2019-05-22T18:01:26.400Z,13.5
2019-05-22T18:11:26.366Z,12.6
2019-05-22T18:21:26.624Z,11.5
2019-05-22T18:31:32.085Z,10.4
2019-05-22T18:41:27.000Z,10.6
2019-05-22T18:51:25.803Z,7.9
2019-05-22T19:01:27.604Z,6.7
2019-05-22T19:11:27.598Z,5.7
2019-05-22T19:21:26.828Z,5.4
2019-05-22T19:31:27.458Z,5.7
2019-05-22T19:41:26.934Z,5.6
2019-05-22T19:51:27.108Z,5.2
2019-05-22T20:01:27.843Z,6.0
2019-05-22T20:11:26.421Z,4.6
2019-05-22T20:21:27.453Z,4.6
2019-05-22T20:31:26.908Z,4.5
2019-05-22T20:41:25.240Z,3.6
2019-05-22T20:51:27.392Z,4.0
2019-05-22T21:01:25.913Z,3.2
2019-05-22T21:11:28.549Z,3.1
2019-05-22T21:21:26.479Z,3.3
2019-05-22T21:31:27.440Z,2.8
2019-05-22T21:41:26.685Z,3.5
2019-05-22T21:51:26.488Z,3.7
2019-05-22T22:01:26.415Z,4.2
2019-05-22T22:11:26.506Z,3.8
2019-05-22T22:21:27.389Z,4.0
2019-05-22T22:31:28.165Z,4.5
2019-05-22T22:41:26.421Z,3.8
2019-05-22T22:51:26.890Z,4.3
2019-05-22T23:01:26.581Z,4.8
2019-05-22T23:11:26.440Z,4.8
2019-05-22T23:21:26.860Z,5.2
2019-05-22T23:31:25.764Z,3.3
2019-05-22T23:41:28.030Z,2.8
2019-05-22T23:51:26.630Z,2.5
